Terminal Aerodrome Forecast
Issued by NWS

Home | Current Version | Previous Version | Text Only | Print | Product List | Glossary On
Versions: 1 2 3 4 5 6 7 8 9 10 11 12
000
FTUS45 KGJT 191747
TAFCNY
TAF
KCNY 191747Z 1918/2018 33006KT P6SM VCSH BKN040 OVC060
     FM192100 32006KT 4SM BR VCSH BKN025 OVC040
     FM200000 02004KT 3SM -RASN OVC015
     FM200600 00000KT 2SM -SN OVC010
     FM201200 28006KT P6SM VCSH OVC008=

USA.gov is the U.S. government's official web portal to all federal, state and local government web resources and services.